createdAt,value
2018-12-19T00:00:03.390Z,16.04
2018-12-19T00:00:15.751Z,16.04
2018-12-19T00:00:28.099Z,16.04
2018-12-19T00:00:40.466Z,16.04
2018-12-19T00:00:52.827Z,16.04
2018-12-19T00:01:05.178Z,16.04
2018-12-19T00:01:17.528Z,16.04
2018-12-19T00:01:29.884Z,16.04
2018-12-19T00:01:42.234Z,16.04
2018-12-19T00:01:54.609Z,16.04
2018-12-19T00:02:07.021Z,16.04
2018-12-19T00:02:19.522Z,16.04
2018-12-19T00:02:31.865Z,16.04
2018-12-19T00:02:44.188Z,16.04
2018-12-19T00:02:56.537Z,16.04
2018-12-19T00:03:08.877Z,16.44
2018-12-19T00:03:21.236Z,16.44
2018-12-19T00:03:33.587Z,16.44
2018-12-19T00:03:45.926Z,16.44
2018-12-19T00:03:58.271Z,16.44
2018-12-19T00:04:10.610Z,16.44
2018-12-19T00:04:22.943Z,16.44
2018-12-19T00:04:35.277Z,16.44
2018-12-19T00:04:47.606Z,16.44
2018-12-19T00:04:59.933Z,16.44
2018-12-19T00:05:12.260Z,16.44
2018-12-19T00:05:24.599Z,16.44
2018-12-19T00:05:36.923Z,16.44
2018-12-19T00:05:49.251Z,16.44
2018-12-19T00:06:01.587Z,16.44
2018-12-19T00:06:13.923Z,16.44
2018-12-19T00:06:26.738Z,16.44
2018-12-19T00:06:39.079Z,16.44
2018-12-19T00:06:51.606Z,16.44
2018-12-19T00:07:03.984Z,16.44
2018-12-19T00:07:16.375Z,16.44
2018-12-19T00:07:28.723Z,16.44
2018-12-19T00:07:41.116Z,16.44
2018-12-19T00:07:53.460Z,16.44
2018-12-19T00:08:05.806Z,16.44
2018-12-19T00:08:18.134Z,16.44
2018-12-19T00:08:30.467Z,16.44
2018-12-19T00:08:42.799Z,16.44
2018-12-19T00:08:55.166Z,16.44
2018-12-19T00:09:13.252Z,16.44
2018-12-19T00:09:25.581Z,16.44
2018-12-19T00:09:37.923Z,16.44
2018-12-19T00:09:50.273Z,16.44
2018-12-19T00:10:02.631Z,16.44
2018-12-19T00:10:15.000Z,16.44
2018-12-19T00:10:27.349Z,16.44
2018-12-19T00:10:39.683Z,16.44
2018-12-19T00:10:52.192Z,16.44
2018-12-19T00:11:04.583Z,16.44
2018-12-19T00:11:16.906Z,16.44
2018-12-19T00:11:29.283Z,16.44
2018-12-19T00:11:41.742Z,16.44
2018-12-19T00:11:54.069Z,16.44
2018-12-19T00:12:06.405Z,16.44
2018-12-19T00:12:18.733Z,16.44
2018-12-19T00:12:31.073Z,16.44
2018-12-19T00:12:43.427Z,16.44
2018-12-19T00:12:55.765Z,16.44
2018-12-19T00:13:08.104Z,16.44
2018-12-19T00:13:20.458Z,16.15
2018-12-19T00:13:32.795Z,16.15
2018-12-19T00:13:45.420Z,16.15
2018-12-19T00:13:57.768Z,16.15
2018-12-19T00:14:10.113Z,16.15
2018-12-19T00:14:22.453Z,16.15
2018-12-19T00:14:34.791Z,16.15
2018-12-19T00:14:47.130Z,16.15
2018-12-19T00:14:59.483Z,16.15
2018-12-19T00:15:11.818Z,16.15
2018-12-19T00:15:24.163Z,16.15
2018-12-19T00:15:36.572Z,16.15
2018-12-19T00:15:48.909Z,16.15
2018-12-19T00:16:01.281Z,16.15
2018-12-19T00:16:13.692Z,16.15
2018-12-19T00:16:26.097Z,16.15
2018-12-19T00:16:38.433Z,16.15
2018-12-19T00:16:50.950Z,16.15
2018-12-19T00:17:03.297Z,16.15
2018-12-19T00:17:15.819Z,16.15
2018-12-19T00:17:28.159Z,16.15
2018-12-19T00:17:40.502Z,16.15
2018-12-19T00:17:52.859Z,16.15
2018-12-19T00:18:05.250Z,16.15
2018-12-19T00:18:17.593Z,16.15
2018-12-19T00:18:29.950Z,16.15
2018-12-19T00:18:42.293Z,16.15
2018-12-19T00:18:54.645Z,16.15
2018-12-19T00:19:06.984Z,16.15
2018-12-19T00:19:19.313Z,16.15
2018-12-19T00:19:31.741Z,16.15
2018-12-19T00:19:44.094Z,16.15
2018-12-19T00:19:56.492Z,16.15
2018-12-19T00:20:08.946Z,16.15
2018-12-19T00:20:21.287Z,16.15
2018-12-19T00:20:33.639Z,16.15
2018-12-19T00:20:45.982Z,16.15
2018-12-19T00:20:58.335Z,16.15
2018-12-19T00:21:10.653Z,16.15
2018-12-19T00:21:22.981Z,16.15
2018-12-19T00:21:35.307Z,16.15
2018-12-19T00:21:47.642Z,16.15
2018-12-19T00:21:59.986Z,16.15
2018-12-19T00:22:12.317Z,16.15
2018-12-19T00:22:24.652Z,16.15
2018-12-19T00:22:36.981Z,16.15
2018-12-19T00:22:49.319Z,16.15
2018-12-19T00:23:01.657Z,16.15
2018-12-19T00:23:13.996Z,16.82
2018-12-19T00:23:26.403Z,16.82
2018-12-19T00:23:38.752Z,16.82
2018-12-19T00:23:51.096Z,16.82
2018-12-19T00:24:03.434Z,16.82
2018-12-19T00:24:15.768Z,16.82
2018-12-19T00:24:28.104Z,16.82
2018-12-19T00:24:40.611Z,16.82
2018-12-19T00:24:52.949Z,16.82
2018-12-19T00:25:05.371Z,16.82
2018-12-19T00:25:17.711Z,16.82
2018-12-19T00:25:30.096Z,16.82
2018-12-19T00:25:42.445Z,16.82
2018-12-19T00:25:54.789Z,16.82
2018-12-19T00:26:07.133Z,16.82
2018-12-19T00:26:19.469Z,16.82
2018-12-19T00:26:31.807Z,16.82
2018-12-19T00:26:44.318Z,16.82
2018-12-19T00:26:56.662Z,16.82
2018-12-19T00:27:09.000Z,16.82
2018-12-19T00:27:21.346Z,16.82
2018-12-19T00:27:33.671Z,16.82
2018-12-19T00:27:46.017Z,16.82
2018-12-19T00:27:58.345Z,16.82
2018-12-19T00:28:10.681Z,16.82
2018-12-19T00:28:23.011Z,16.82
2018-12-19T00:28:35.339Z,16.82
2018-12-19T00:28:47.669Z,16.82
2018-12-19T00:29:00.044Z,16.82
2018-12-19T00:29:12.378Z,16.82
2018-12-19T00:29:24.737Z,16.82
2018-12-19T00:29:37.069Z,16.82
2018-12-19T00:29:49.416Z,16.82
2018-12-19T00:30:01.754Z,16.82
2018-12-19T00:30:14.254Z,16.82
2018-12-19T00:30:26.589Z,16.82
2018-12-19T00:30:38.913Z,16.82
2018-12-19T00:30:51.245Z,16.82
2018-12-19T00:31:03.586Z,16.82
2018-12-19T00:31:15.918Z,16.82
2018-12-19T00:31:28.245Z,16.82
2018-12-19T00:31:40.590Z,16.82
2018-12-19T00:31:52.944Z,16.82
2018-12-19T00:32:05.349Z,16.82
2018-12-19T00:32:17.761Z,16.82
2018-12-19T00:32:30.188Z,16.82
2018-12-19T00:32:42.549Z,16.82
2018-12-19T00:32:55.025Z,16.82
2018-12-19T00:33:07.363Z,16.82
2018-12-19T00:33:19.713Z,16.02
2018-12-19T00:33:32.176Z,16.02
2018-12-19T00:33:44.608Z,16.02
2018-12-19T00:33:56.948Z,16.02
2018-12-19T00:34:09.278Z,16.02
2018-12-19T00:34:21.688Z,16.02
2018-12-19T00:34:34.035Z,16.02
2018-12-19T00:34:46.387Z,16.02
2018-12-19T00:34:58.720Z,16.02
2018-12-19T00:35:11.067Z,16.02
2018-12-19T00:35:23.403Z,16.02
2018-12-19T00:35:35.732Z,16.02
2018-12-19T00:35:48.067Z,16.02
2018-12-19T00:36:00.391Z,16.02
2018-12-19T00:36:12.749Z,16.02
2018-12-19T00:36:25.101Z,16.02
2018-12-19T00:36:37.463Z,16.02
2018-12-19T00:36:49.915Z,16.02
2018-12-19T00:37:02.241Z,16.02
2018-12-19T00:37:14.581Z,16.02
2018-12-19T00:37:27.086Z,16.02
2018-12-19T00:37:39.423Z,16.02
2018-12-19T00:37:51.831Z,16.02
2018-12-19T00:38:04.177Z,16.02
2018-12-19T00:38:16.568Z,16.02
2018-12-19T00:38:28.958Z,16.02
2018-12-19T00:38:41.314Z,16.02
2018-12-19T00:38:53.812Z,16.02
2018-12-19T00:39:11.876Z,16.02
2018-12-19T00:39:25.181Z,16.02
2018-12-19T00:39:37.538Z,16.02
2018-12-19T00:39:49.893Z,16.02
2018-12-19T00:40:02.377Z,16.02
2018-12-19T00:40:14.726Z,16.02
2018-12-19T00:40:27.439Z,16.02
2018-12-19T00:40:39.767Z,16.02
2018-12-19T00:40:52.191Z,16.02
2018-12-19T00:41:04.540Z,16.02
2018-12-19T00:41:16.970Z,16.02
2018-12-19T00:41:29.368Z,16.02
2018-12-19T00:41:41.701Z,16.02
2018-12-19T00:41:54.057Z,16.02
2018-12-19T00:42:06.378Z,16.02
2018-12-19T00:42:18.721Z,16.02
2018-12-19T00:42:31.065Z,16.02
2018-12-19T00:42:43.412Z,16.02
2018-12-19T00:42:55.752Z,16.02
2018-12-19T00:43:08.100Z,16.02
2018-12-19T00:43:20.432Z,15.62
2018-12-19T00:43:32.781Z,15.62
2018-12-19T00:43:45.117Z,15.62
2018-12-19T00:43:57.477Z,15.62
2018-12-19T00:44:09.830Z,15.62
2018-12-19T00:44:23.634Z,15.62
2018-12-19T00:44:35.963Z,15.62
2018-12-19T00:44:48.313Z,15.62
2018-12-19T00:45:00.702Z,15.62
2018-12-19T00:45:13.051Z,15.62
2018-12-19T00:45:25.387Z,15.62
2018-12-19T00:45:37.925Z,15.62
2018-12-19T00:45:50.273Z,15.62
2018-12-19T00:46:02.616Z,15.62
2018-12-19T00:46:14.958Z,15.62
2018-12-19T00:46:27.293Z,15.62
2018-12-19T00:46:39.812Z,15.62
2018-12-19T00:46:52.159Z,15.62
2018-12-19T00:47:04.493Z,15.62
2018-12-19T00:47:16.828Z,15.62
2018-12-19T00:47:29.173Z,15.62
2018-12-19T00:47:41.511Z,15.62
2018-12-19T00:47:53.857Z,15.62
2018-12-19T00:48:06.201Z,15.62
2018-12-19T00:48:18.532Z,15.62
2018-12-19T00:48:31.007Z,15.62
2018-12-19T00:48:43.360Z,15.62
2018-12-19T00:48:55.703Z,15.62
2018-12-19T00:49:08.050Z,15.62
2018-12-19T00:49:20.453Z,15.62
2018-12-19T00:49:32.812Z,15.62
2018-12-19T00:49:46.185Z,15.62
2018-12-19T00:49:58.613Z,15.62
2018-12-19T00:50:11.129Z,15.62
2018-12-19T00:50:23.471Z,15.62
2018-12-19T00:50:35.805Z,15.62
2018-12-19T00:50:48.377Z,15.62
2018-12-19T00:51:00.718Z,15.62
2018-12-19T00:51:13.059Z,15.62
2018-12-19T00:51:25.402Z,15.62
2018-12-19T00:51:37.738Z,15.62
2018-12-19T00:51:50.119Z,15.62
2018-12-19T00:52:02.462Z,15.62
2018-12-19T00:52:14.942Z,15.62
2018-12-19T00:52:27.298Z,15.62
2018-12-19T00:52:39.643Z,15.62
2018-12-19T00:52:52.040Z,15.62
2018-12-19T00:53:04.377Z,15.62
2018-12-19T00:53:16.725Z,16.29
2018-12-19T00:53:29.150Z,16.29
2018-12-19T00:53:41.485Z,16.29
2018-12-19T00:53:53.840Z,16.29
2018-12-19T00:54:06.183Z,16.29
2018-12-19T00:54:18.537Z,16.29
2018-12-19T00:54:30.898Z,16.29
2018-12-19T00:54:43.242Z,16.29
2018-12-19T00:54:55.596Z,16.29
2018-12-19T00:55:08.070Z,16.29
2018-12-19T00:55:20.410Z,16.29
2018-12-19T00:55:32.807Z,16.29
2018-12-19T00:55:45.140Z,16.29
2018-12-19T00:55:57.482Z,16.29
2018-12-19T00:56:10.048Z,16.29
2018-12-19T00:56:22.379Z,16.29
2018-12-19T00:56:34.723Z,16.29
2018-12-19T00:56:47.078Z,16.29
2018-12-19T00:56:59.567Z,16.29
2018-12-19T00:57:11.893Z,16.29
2018-12-19T00:57:24.223Z,16.29
2018-12-19T00:57:36.560Z,16.29
2018-12-19T00:57:48.908Z,16.29
2018-12-19T00:58:01.275Z,16.29
2018-12-19T00:58:13.621Z,16.29
2018-12-19T00:58:25.957Z,16.29
2018-12-19T00:58:38.283Z,16.29
2018-12-19T00:58:50.611Z,16.29
2018-12-19T00:59:02.979Z,16.29
2018-12-19T00:59:15.330Z,16.29
2018-12-19T00:59:27.686Z,16.29
2018-12-19T00:59:40.033Z,16.29
2018-12-19T00:59:52.366Z,16.29
2018-12-19T01:00:04.749Z,16.29
2018-12-19T01:00:17.085Z,16.29
2018-12-19T01:00:29.433Z,16.29
2018-12-19T01:00:41.802Z,16.29
2018-12-19T01:00:54.146Z,16.29
2018-12-19T01:01:06.488Z,16.29
2018-12-19T01:01:18.834Z,16.29
2018-12-19T01:01:31.182Z,16.29
2018-12-19T01:01:43.536Z,16.29
2018-12-19T01:01:55.891Z,16.29
2018-12-19T01:02:08.239Z,16.29
2018-12-19T01:02:20.589Z,16.29
2018-12-19T01:02:33.095Z,16.29
2018-12-19T01:02:45.462Z,16.29
2018-12-19T01:02:57.804Z,16.29
2018-12-19T01:03:10.142Z,16.29
2018-12-19T01:03:22.522Z,15.4
2018-12-19T01:03:34.874Z,15.4
2018-12-19T01:03:47.210Z,15.4
2018-12-19T01:04:01.089Z,15.4
2018-12-19T01:04:13.621Z,15.4
2018-12-19T01:04:25.967Z,15.4
2018-12-19T01:04:38.293Z,15.4
2018-12-19T01:04:57.168Z,15.4
2018-12-19T01:05:09.523Z,15.4
2018-12-19T01:05:21.877Z,15.4
2018-12-19T01:05:34.216Z,15.4
2018-12-19T01:05:46.542Z,15.4
2018-12-19T01:05:58.896Z,15.4
2018-12-19T01:06:11.250Z,15.4
2018-12-19T01:06:23.604Z,15.4
2018-12-19T01:06:36.134Z,15.4
2018-12-19T01:06:48.466Z,15.4
2018-12-19T01:07:00.804Z,15.4
2018-12-19T01:07:13.149Z,15.4
2018-12-19T01:07:25.535Z,15.4
2018-12-19T01:07:37.897Z,15.4
2018-12-19T01:07:50.251Z,15.4
2018-12-19T01:08:02.611Z,15.4
2018-12-19T01:08:14.942Z,15.4
2018-12-19T01:08:27.276Z,15.4
2018-12-19T01:08:39.717Z,15.4
2018-12-19T01:08:52.054Z,15.4
2018-12-19T01:09:04.445Z,15.4
2018-12-19T01:09:22.618Z,15.4
2018-12-19T01:09:34.987Z,15.4
2018-12-19T01:09:47.361Z,15.4
2018-12-19T01:09:59.702Z,15.4
2018-12-19T01:10:12.037Z,15.4
2018-12-19T01:10:24.361Z,15.4
2018-12-19T01:10:36.696Z,15.4
2018-12-19T01:10:49.106Z,15.4
2018-12-19T01:11:01.440Z,15.4
2018-12-19T01:11:13.781Z,15.4
2018-12-19T01:11:26.121Z,15.4
2018-12-19T01:11:38.603Z,15.4
2018-12-19T01:11:50.943Z,15.4
2018-12-19T01:12:03.288Z,15.4
2018-12-19T01:12:15.638Z,15.4
2018-12-19T01:12:28.031Z,15.4
2018-12-19T01:12:40.396Z,15.4
2018-12-19T01:12:52.751Z,15.4
2018-12-19T01:13:05.091Z,15.4
2018-12-19T01:13:17.428Z,16.29
2018-12-19T01:13:29.777Z,16.29
2018-12-19T01:13:42.122Z,16.29
2018-12-19T01:13:54.659Z,16.29
2018-12-19T01:14:06.989Z,16.29
2018-12-19T01:14:19.320Z,16.29
2018-12-19T01:14:31.673Z,16.29
2018-12-19T01:14:44.019Z,16.29
2018-12-19T01:14:56.365Z,16.29
2018-12-19T01:15:08.700Z,16.29
2018-12-19T01:15:21.026Z,16.29
2018-12-19T01:15:33.373Z,16.29
2018-12-19T01:15:45.715Z,16.29
2018-12-19T01:15:58.074Z,16.29
2018-12-19T01:16:10.429Z,16.29
2018-12-19T01:16:22.780Z,16.29
2018-12-19T01:16:35.118Z,16.29
2018-12-19T01:16:47.464Z,16.29
2018-12-19T01:16:59.840Z,16.29
2018-12-19T01:17:12.575Z,16.29
2018-12-19T01:17:24.947Z,16.29
2018-12-19T01:17:37.311Z,16.29
2018-12-19T01:17:49.640Z,16.29
2018-12-19T01:18:02.059Z,16.29
2018-12-19T01:18:14.403Z,16.29
2018-12-19T01:18:26.744Z,16.29
2018-12-19T01:18:39.076Z,16.29
2018-12-19T01:18:51.411Z,16.29
2018-12-19T01:19:03.759Z,16.29
2018-12-19T01:19:16.093Z,16.29
2018-12-19T01:19:28.435Z,16.29
2018-12-19T01:19:40.791Z,16.29
2018-12-19T01:19:53.149Z,16.29
2018-12-19T01:20:05.491Z,16.29
2018-12-19T01:20:17.946Z,16.29
2018-12-19T01:20:30.286Z,16.29
2018-12-19T01:20:42.629Z,16.29
2018-12-19T01:20:54.972Z,16.29
2018-12-19T01:21:07.313Z,16.29
2018-12-19T01:21:19.662Z,16.29
2018-12-19T01:21:32.012Z,16.29
2018-12-19T01:21:44.364Z,16.29
2018-12-19T01:21:56.706Z,16.29
2018-12-19T01:22:09.048Z,16.29
2018-12-19T01:22:21.394Z,16.29
2018-12-19T01:22:33.770Z,16.29
2018-12-19T01:22:46.097Z,16.29
2018-12-19T01:22:58.447Z,16.29
2018-12-19T01:23:10.850Z,16.29
2018-12-19T01:23:23.187Z,16.48
2018-12-19T01:23:35.524Z,16.48
2018-12-19T01:23:47.864Z,16.48
2018-12-19T01:24:00.190Z,16.48
2018-12-19T01:24:12.548Z,16.48
2018-12-19T01:24:24.874Z,16.48
2018-12-19T01:24:37.214Z,16.48
2018-12-19T01:24:49.686Z,16.48
2018-12-19T01:25:02.024Z,16.48
2018-12-19T01:25:14.350Z,16.48
2018-12-19T01:25:26.685Z,16.48
2018-12-19T01:25:39.007Z,16.48
2018-12-19T01:25:51.336Z,16.48
2018-12-19T01:26:03.683Z,16.48
2018-12-19T01:26:16.025Z,16.48
2018-12-19T01:26:28.431Z,16.48
2018-12-19T01:26:40.905Z,16.48
2018-12-19T01:26:53.246Z,16.48
2018-12-19T01:27:05.599Z,16.48
2018-12-19T01:27:17.951Z,16.48
2018-12-19T01:27:30.294Z,16.48
2018-12-19T01:27:42.637Z,16.48
2018-12-19T01:27:55.027Z,16.48
2018-12-19T01:28:07.348Z,16.48
2018-12-19T01:28:19.679Z,16.48
2018-12-19T01:28:32.010Z,16.48
2018-12-19T01:28:44.332Z,16.48
2018-12-19T01:28:56.713Z,16.48
2018-12-19T01:29:09.062Z,16.48
2018-12-19T01:29:21.405Z,16.48
2018-12-19T01:29:33.810Z,16.48
2018-12-19T01:29:46.167Z,16.48
2018-12-19T01:29:58.561Z,16.48
2018-12-19T01:30:11.081Z,16.48
2018-12-19T01:30:23.427Z,16.48
2018-12-19T01:30:35.788Z,16.48
2018-12-19T01:30:48.133Z,16.48
2018-12-19T01:31:00.507Z,16.48
2018-12-19T01:31:12.958Z,16.48
2018-12-19T01:31:25.302Z,16.48
2018-12-19T01:31:37.642Z,16.48
2018-12-19T01:31:49.996Z,16.48
2018-12-19T01:32:02.333Z,16.48
2018-12-19T01:32:14.683Z,16.48
2018-12-19T01:32:27.014Z,16.48
2018-12-19T01:32:39.521Z,16.48
2018-12-19T01:32:51.862Z,16.48
2018-12-19T01:33:04.201Z,16.48
2018-12-19T01:33:16.544Z,15.8
2018-12-19T01:33:28.897Z,15.8
2018-12-19T01:33:41.243Z,15.8
2018-12-19T01:33:53.660Z,15.8
2018-12-19T01:34:06.023Z,15.8
2018-12-19T01:34:18.393Z,15.8
2018-12-19T01:34:30.736Z,15.8
2018-12-19T01:34:43.133Z,15.8
2018-12-19T01:34:55.476Z,15.8
2018-12-19T01:35:07.834Z,15.8
2018-12-19T01:35:20.182Z,15.8
2018-12-19T01:35:32.596Z,15.8
2018-12-19T01:35:45.019Z,15.8
2018-12-19T01:35:57.347Z,15.8
2018-12-19T01:36:09.699Z,15.8
2018-12-19T01:36:22.057Z,15.8
2018-12-19T01:36:34.408Z,15.8
2018-12-19T01:36:46.745Z,15.8
2018-12-19T01:36:59.240Z,15.8
2018-12-19T01:37:11.571Z,15.8
2018-12-19T01:37:24.085Z,15.8
2018-12-19T01:37:36.492Z,15.8
2018-12-19T01:37:48.835Z,15.8
2018-12-19T01:38:01.303Z,15.8
2018-12-19T01:38:13.675Z,15.8
2018-12-19T01:38:26.030Z,15.8
2018-12-19T01:38:38.375Z,15.8
2018-12-19T01:38:51.382Z,15.8
2018-12-19T01:39:03.730Z,15.8
2018-12-19T01:39:22.317Z,15.8
2018-12-19T01:39:34.975Z,15.8
2018-12-19T01:39:47.323Z,15.8
2018-12-19T01:39:59.832Z,15.8
2018-12-19T01:40:12.161Z,15.8
2018-12-19T01:40:24.499Z,15.8
2018-12-19T01:40:37.221Z,15.8
2018-12-19T01:40:49.574Z,15.8
2018-12-19T01:41:01.950Z,15.8
2018-12-19T01:41:14.657Z,15.8
2018-12-19T01:41:26.997Z,15.8
2018-12-19T01:41:39.342Z,15.8
2018-12-19T01:41:51.704Z,15.8
2018-12-19T01:42:04.051Z,15.8
2018-12-19T01:42:16.407Z,15.8
2018-12-19T01:42:28.847Z,15.8
2018-12-19T01:42:41.182Z,15.8
2018-12-19T01:42:53.533Z,15.8
2018-12-19T01:43:05.872Z,15.8
2018-12-19T01:43:18.235Z,15.54
2018-12-19T01:43:30.576Z,15.54
2018-12-19T01:43:42.906Z,15.54
2018-12-19T01:43:55.273Z,15.54
2018-12-19T01:44:07.601Z,15.54
2018-12-19T01:44:19.948Z,15.54
2018-12-19T01:44:32.330Z,15.54
2018-12-19T01:44:44.687Z,15.54
2018-12-19T01:44:57.048Z,15.54
2018-12-19T01:45:09.426Z,15.54
2018-12-19T01:45:21.777Z,15.54
2018-12-19T01:45:34.263Z,15.54
2018-12-19T01:45:46.597Z,15.54
2018-12-19T01:45:58.935Z,15.54
2018-12-19T01:46:11.307Z,15.54
2018-12-19T01:46:23.641Z,15.54
2018-12-19T01:46:36.357Z,15.54
2018-12-19T01:46:48.697Z,15.54
2018-12-19T01:47:01.037Z,15.54
2018-12-19T01:47:13.372Z,15.54
2018-12-19T01:47:25.725Z,15.54
2018-12-19T01:47:38.107Z,15.54
2018-12-19T01:47:50.444Z,15.54
2018-12-19T01:48:02.806Z,15.54
2018-12-19T01:48:15.217Z,15.54
2018-12-19T01:48:27.733Z,15.54
2018-12-19T01:48:40.057Z,15.54
2018-12-19T01:48:52.399Z,15.54
2018-12-19T01:49:04.740Z,15.54
2018-12-19T01:49:17.082Z,15.54
2018-12-19T01:49:29.426Z,15.54
2018-12-19T01:49:41.806Z,15.54
2018-12-19T01:49:54.141Z,15.54
2018-12-19T01:50:06.629Z,15.54
2018-12-19T01:50:19.035Z,15.54
2018-12-19T01:50:31.371Z,15.54
2018-12-19T01:50:43.732Z,15.54
2018-12-19T01:50:56.286Z,15.54
2018-12-19T01:51:08.621Z,15.54
2018-12-19T01:51:20.951Z,15.54
2018-12-19T01:51:33.286Z,15.54
2018-12-19T01:51:45.613Z,15.54
2018-12-19T01:51:57.965Z,15.54
2018-12-19T01:52:10.354Z,15.54
2018-12-19T01:52:22.824Z,15.54
2018-12-19T01:52:35.183Z,15.54
2018-12-19T01:52:47.517Z,15.54
2018-12-19T01:52:59.862Z,15.54
2018-12-19T01:53:12.207Z,15.54
2018-12-19T01:53:24.703Z,14.52
2018-12-19T01:53:37.032Z,14.52
2018-12-19T01:53:49.364Z,14.52
2018-12-19T01:54:01.720Z,14.52
2018-12-19T01:54:14.057Z,14.52
2018-12-19T01:54:26.387Z,14.52
2018-12-19T01:54:38.736Z,14.52
2018-12-19T01:54:51.085Z,14.52
2018-12-19T01:55:03.567Z,14.52
2018-12-19T01:55:15.939Z,14.52
2018-12-19T01:55:28.271Z,14.52
2018-12-19T01:55:40.631Z,14.52
2018-12-19T01:55:52.971Z,14.52
2018-12-19T01:56:05.304Z,14.52
2018-12-19T01:56:17.747Z,14.52
2018-12-19T01:56:30.096Z,14.52
2018-12-19T01:56:42.435Z,14.52
2018-12-19T01:56:54.935Z,14.52
2018-12-19T01:57:07.255Z,14.52
2018-12-19T01:57:19.592Z,14.52
2018-12-19T01:57:32.000Z,14.52
2018-12-19T01:57:44.351Z,14.52
2018-12-19T01:57:56.680Z,14.52
2018-12-19T01:58:09.029Z,14.52
2018-12-19T01:58:21.382Z,14.52
2018-12-19T01:58:33.730Z,14.52
2018-12-19T01:58:46.124Z,14.52
2018-12-19T01:58:58.486Z,14.52
2018-12-19T01:59:10.827Z,14.52
2018-12-19T01:59:23.228Z,14.52
2018-12-19T01:59:35.627Z,14.52
2018-12-19T01:59:47.963Z,14.52
2018-12-19T02:00:00.295Z,14.52
2018-12-19T02:00:12.651Z,14.52
2018-12-19T02:00:25.043Z,14.52
2018-12-19T02:00:37.485Z,14.52
2018-12-19T02:00:49.863Z,14.52
2018-12-19T02:01:02.227Z,14.52
2018-12-19T02:01:14.565Z,14.52
2018-12-19T02:01:26.924Z,14.52
2018-12-19T02:01:39.292Z,14.52
2018-12-19T02:01:51.628Z,14.52
2018-12-19T02:02:03.982Z,14.52
2018-12-19T02:02:16.375Z,14.52
2018-12-19T02:02:28.726Z,14.52
2018-12-19T02:02:41.216Z,14.52
2018-12-19T02:02:53.556Z,14.52
2018-12-19T02:03:05.888Z,14.52
2018-12-19T02:03:18.244Z,14.67
2018-12-19T02:03:30.604Z,14.67
2018-12-19T02:03:42.990Z,14.67
2018-12-19T02:03:55.337Z,14.67
2018-12-19T02:04:07.687Z,14.67
2018-12-19T02:04:20.041Z,14.67
2018-12-19T02:04:32.405Z,14.67
2018-12-19T02:04:45.210Z,14.67
2018-12-19T02:04:57.563Z,14.67
2018-12-19T02:05:09.908Z,14.67
2018-12-19T02:05:22.239Z,14.67
2018-12-19T02:05:34.669Z,14.67
2018-12-19T02:05:47.014Z,14.67
2018-12-19T02:05:59.351Z,14.67
2018-12-19T02:06:11.695Z,14.67
2018-12-19T02:06:24.296Z,14.67
2018-12-19T02:06:36.653Z,14.67
2018-12-19T02:06:49.010Z,14.67
2018-12-19T02:07:01.349Z,14.67
2018-12-19T02:07:13.683Z,14.67
2018-12-19T02:07:26.025Z,14.67
2018-12-19T02:07:38.373Z,14.67
2018-12-19T02:07:50.703Z,14.67
2018-12-19T02:08:03.095Z,14.67
2018-12-19T02:08:15.418Z,14.67
2018-12-19T02:08:27.768Z,14.67
2018-12-19T02:08:40.096Z,14.67
2018-12-19T02:08:52.430Z,14.67
2018-12-19T02:09:04.778Z,14.67
2018-12-19T02:09:17.114Z,14.67
2018-12-19T02:09:35.802Z,14.67
2018-12-19T02:09:48.195Z,14.67
2018-12-19T02:10:00.544Z,14.67
2018-12-19T02:10:12.888Z,14.67
2018-12-19T02:10:25.228Z,14.67
2018-12-19T02:10:37.628Z,14.67
2018-12-19T02:10:50.037Z,14.67
2018-12-19T02:11:02.388Z,14.67
2018-12-19T02:11:14.725Z,14.67
2018-12-19T02:11:27.144Z,14.67
2018-12-19T02:11:39.490Z,14.67
2018-12-19T02:11:51.827Z,14.67
2018-12-19T02:12:04.183Z,14.67
2018-12-19T02:12:16.519Z,14.67
2018-12-19T02:12:28.887Z,14.67
2018-12-19T02:12:41.236Z,14.67
2018-12-19T02:12:53.575Z,14.67
2018-12-19T02:13:05.953Z,14.67
2018-12-19T02:13:18.280Z,15.65
2018-12-19T02:13:30.614Z,15.65
2018-12-19T02:13:42.978Z,15.65
2018-12-19T02:13:55.438Z,15.65
2018-12-19T02:14:07.849Z,15.65
2018-12-19T02:14:20.197Z,15.65
2018-12-19T02:14:32.549Z,15.65
2018-12-19T02:14:44.968Z,15.65
2018-12-19T02:14:57.317Z,15.65
2018-12-19T02:15:09.653Z,15.65
2018-12-19T02:15:21.999Z,15.65
2018-12-19T02:15:34.342Z,15.65
2018-12-19T02:15:46.687Z,15.65
2018-12-19T02:15:59.024Z,15.65
2018-12-19T02:16:11.422Z,15.65
2018-12-19T02:16:23.761Z,15.65
2018-12-19T02:16:36.127Z,15.65
2018-12-19T02:16:48.479Z,15.65
2018-12-19T02:17:00.831Z,15.65
2018-12-19T02:17:13.343Z,15.65
2018-12-19T02:17:25.697Z,15.65
2018-12-19T02:17:38.127Z,15.65
2018-12-19T02:17:50.452Z,15.65
2018-12-19T02:18:02.819Z,15.65
2018-12-19T02:18:15.152Z,15.65
2018-12-19T02:18:27.574Z,15.65
2018-12-19T02:18:39.923Z,15.65
2018-12-19T02:18:52.267Z,15.65
2018-12-19T02:19:04.823Z,15.65
2018-12-19T02:19:17.167Z,15.65
2018-12-19T02:19:29.500Z,15.65
2018-12-19T02:19:41.868Z,15.65
2018-12-19T02:19:54.218Z,15.65
2018-12-19T02:20:06.557Z,15.65
2018-12-19T02:20:19.080Z,15.65
2018-12-19T02:20:31.484Z,15.65
2018-12-19T02:20:43.825Z,15.65
2018-12-19T02:20:56.174Z,15.65
2018-12-19T02:21:08.523Z,15.65
2018-12-19T02:21:20.856Z,15.65
2018-12-19T02:21:33.202Z,15.65
2018-12-19T02:21:45.548Z,15.65
2018-12-19T02:21:57.892Z,15.65
2018-12-19T02:22:10.216Z,15.65
2018-12-19T02:22:22.564Z,15.65
2018-12-19T02:22:34.902Z,15.65
2018-12-19T02:22:47.237Z,15.65
2018-12-19T02:22:59.602Z,15.65
2018-12-19T02:23:11.929Z,15.65
2018-12-19T02:23:24.293Z,15.35
2018-12-19T02:23:36.699Z,15.35
2018-12-19T02:23:49.041Z,15.35
2018-12-19T02:24:01.396Z,15.35
2018-12-19T02:24:13.740Z,15.35
2018-12-19T02:24:26.065Z,15.35
2018-12-19T02:24:38.693Z,15.35
2018-12-19T02:24:51.034Z,15.35
2018-12-19T02:25:03.365Z,15.35
2018-12-19T02:25:15.727Z,15.35
2018-12-19T02:25:28.082Z,15.35
2018-12-19T02:25:40.426Z,15.35
2018-12-19T02:25:52.778Z,15.35
2018-12-19T02:26:05.121Z,15.35
2018-12-19T02:26:17.476Z,15.35
2018-12-19T02:26:29.809Z,15.35
2018-12-19T02:26:42.339Z,15.35
2018-12-19T02:26:54.662Z,15.35
2018-12-19T02:27:06.993Z,15.35
2018-12-19T02:27:19.325Z,15.35
2018-12-19T02:27:31.652Z,15.35
2018-12-19T02:27:43.999Z,15.35
2018-12-19T02:27:56.325Z,15.35
2018-12-19T02:28:08.666Z,15.35
2018-12-19T02:28:21.060Z,15.35
2018-12-19T02:28:33.405Z,15.35
2018-12-19T02:28:45.751Z,15.35
2018-12-19T02:28:58.077Z,15.35
2018-12-19T02:29:10.462Z,15.35
2018-12-19T02:29:22.818Z,15.35
2018-12-19T02:29:35.148Z,15.35
2018-12-19T02:29:47.481Z,15.35
2018-12-19T02:29:59.852Z,15.35
2018-12-19T02:30:12.355Z,15.35
2018-12-19T02:30:24.751Z,15.35
2018-12-19T02:30:37.109Z,15.35
2018-12-19T02:30:49.487Z,15.35
2018-12-19T02:31:01.825Z,15.35
2018-12-19T02:31:14.309Z,15.35
2018-12-19T02:31:26.657Z,15.35
2018-12-19T02:31:39.006Z,15.35
2018-12-19T02:31:51.402Z,15.35
2018-12-19T02:32:03.732Z,15.35
2018-12-19T02:32:16.070Z,15.35
2018-12-19T02:32:28.468Z,15.35
2018-12-19T02:32:40.877Z,15.35
2018-12-19T02:32:53.228Z,15.35
2018-12-19T02:33:05.582Z,15.35
2018-12-19T02:33:17.940Z,15.13
2018-12-19T02:33:30.384Z,15.13
2018-12-19T02:33:42.756Z,15.13
2018-12-19T02:33:55.124Z,15.13
2018-12-19T02:34:07.495Z,15.13
2018-12-19T02:34:19.877Z,15.13
2018-12-19T02:34:32.230Z,15.13
2018-12-19T02:34:44.599Z,15.13
2018-12-19T02:34:56.967Z,15.13
2018-12-19T02:35:09.391Z,15.13
2018-12-19T02:35:21.718Z,15.13
2018-12-19T02:35:34.057Z,15.13
2018-12-19T02:35:46.429Z,15.13
2018-12-19T02:35:58.795Z,15.13
2018-12-19T02:36:11.162Z,15.13
2018-12-19T02:36:23.557Z,15.13
2018-12-19T02:36:35.894Z,15.13
2018-12-19T02:36:48.394Z,15.13
2018-12-19T02:37:00.757Z,15.13
2018-12-19T02:37:13.085Z,15.13
2018-12-19T02:37:25.521Z,15.13
2018-12-19T02:37:37.953Z,15.13
2018-12-19T02:37:50.330Z,15.13
2018-12-19T02:38:02.696Z,15.13
2018-12-19T02:38:15.049Z,15.13
2018-12-19T02:38:27.415Z,15.13
2018-12-19T02:38:39.787Z,15.13
2018-12-19T02:38:52.292Z,15.13
2018-12-19T02:39:04.721Z,15.13
2018-12-19T02:39:17.085Z,15.13
2018-12-19T02:39:35.912Z,15.13
2018-12-19T02:39:48.690Z,15.13
2018-12-19T02:40:01.128Z,15.13
2018-12-19T02:40:13.574Z,15.13
2018-12-19T02:40:25.935Z,15.13
2018-12-19T02:40:38.639Z,15.13